Aviation Digital Data Service (ADDS)

Output produced by METARs form (0845 UTC 19 April 2019)
found at http://www.aviationweather.gov/metar/data/
 
Forecast for: AMD
Text: TAF AMD ZBHH 190554Z 1906/2006 18004MPS 9999 -TSRA SCT040 FEW040CB TX17/1908Z TN07/1922Z
Forecast period: 0600 UTC 19 April 2019 to 0600 UTC 20 April 2019
Forecast type: FROM: standard forecast or significant change
Winds: from the S (180 degrees) at 9 MPH (8 knots; 4.1 m/s)
Visibility: 6 or more miles 10+ km)
Ceiling: at least 12,000 feet AGL
Clouds: scattered clouds at 4000 feet AGL
few clouds at 4000 feet AGL
Weather: -TSRA  (light rain associated with thunderstorm(s))
Text: BECMG 1906/1907 NSW FEW040
Forecast period: 0600 UTC 19 April 2019 to 0600 UTC 20 April 2019
Forecast type: BECOMING: Conditions expected to become as follows by 0700 UTC 19 April 2019
Winds: from the S (180 degrees) at 9 MPH (8 knots; 4.1 m/s)
Visibility: 6 or more miles 10+ km)
Ceiling: at least 12,000 feet AGL
Clouds: few clouds at 4000 feet AGL
Weather: NSW  (no significant weather)